HBA weather

Hobart International Airport
Hobart, Tasmania, Australia

Public forecast

Using degrees Celsius for public forecast. Weather courtesy of forecast.io.

METAR (pilot weather report)

Retrieved 2018/11/17 02:42 UTC (18 minutes ago):

YMHB 170242Z 16019KT 9999 FEW030 BKN060 16/09 Q1022 RF00/0/000/0

TAF (pilot weather forecast)

Forecast is more than 12 hours old.

Retrieved 2018/11/16 00:37 UTC (1 day ago):

TAF YMHB 162305Z 1700/1724 33008KT CAVOK FM170100 17014KT 9999 FEW020 SCT035 FM171200 21005KT 9999 FEW015 BKN025 FM172200 12008KT 9999 FEW015 SCT030